Flight Track Log - Related Links

Times and Time Zones

All times are in EDT time to prevent confusion due to time zone crossing. See the JZA7832 flight status page for this flight to view local times or setup timezone preferences in your user account.

Time Position Orientation Groundspeed Altitude Reporting Facility
EDT Latitude Longitude Course Direction KTS MPH feet Rate Location/Type
Fri 08:37:00 PM 48.1993 -81.2540 171° South  Level FlightAware Approximate
Fri 08:38:00 PM 48.1380 -81.2364 169° South  Level FlightAware Approximate
Fri 08:39:00 PM 48.0767 -81.2180 169° South  Level FlightAware Approximate
Fri 08:40:00 PM 48.0154 -81.1997 169° South  Level FlightAware Approximate
Fri 08:40:31 PM 48.0500 -81.2333 171° South 210 242 10,000  Level Toronto Center
Fri 08:41:00 PM 47.9541 -81.1821 169° South  Level FlightAware Approximate
Fri 08:41:31 PM 48.0000 -81.2000 156° South 170 196 11,000  Level Toronto Center
Fri 08:42:00 PM 47.8913 -81.1641 169° South  Level FlightAware Approximate
Fri 08:42:31 PM 47.9500 -81.2000 180° South 170 196 11,900  Level Toronto Center
Fri 08:43:00 PM 47.8285 -81.1462 169° South  Level FlightAware Approximate
Fri 08:43:31 PM 47.9167 -81.1667 146° Southeast 170 196 12,900  Level Toronto Center
Fri 08:44:00 PM 47.7659 -81.1275 167° South  Level FlightAware Approximate
Fri 08:44:31 PM 47.8667 -81.1667 180° South 180 207 13,800  Level Toronto Center
Fri 08:45:00 PM 47.7031 -81.1099 171° South  Level FlightAware Approximate
Fri 08:45:31 PM 47.8167 -81.1500 167° South 180 207 14,600  Level Toronto Center
Fri 08:46:00 PM 47.6399 -81.0959 171° South  Level FlightAware Approximate
Fri 08:46:31 PM 47.7500 -81.1500 180° South 190 219 15,400  Level Toronto Center
Fri 08:47:31 PM 47.7000 -81.1167 156° South 200 230 16,000 800 Climbing Toronto Center
Fri 08:48:31 PM 47.6500 -81.0833 156° South 200 230 17,000 850 Climbing Toronto Center
Fri 08:49:31 PM 47.5833 -81.0833 180° South 200 230 17,700 550 Climbing Toronto Center
Fri 08:50:31 PM 47.5333 -81.0667 167° South 210 242 18,100 500 Climbing Toronto Center
Fri 08:51:31 PM 47.4833 -81.0667 180° South 210 242 18,700 450 Climbing Toronto Center
Fri 08:52:31 PM 47.4167 -81.0333 161° South 210 242 19,000 150 Climbing Toronto Center
Fri 08:53:31 PM 47.3500 -81.0167 170° South 230 265 19,000  Level Toronto Center
Fri 08:54:31 PM 47.2833 -81.0000 170° South 240 276 19,000  Level Toronto Center
Fri 08:55:31 PM 47.2167 -80.9833 170° South 240 276 19,000  Level Toronto Center
Fri 08:56:31 PM 47.1500 -80.9500 161° South 250 288 19,000  Level Toronto Center
Fri 08:57:31 PM 47.0833 -80.9333 170° South 250 288 19,000  Level Toronto Center
Fri 08:58:31 PM 47.0167 -80.9333 180° South 240 276 19,000  Level Toronto Center
Fri 08:59:31 PM 46.9667 -80.9000 156° South 250 288 19,000  Level Toronto Center
Fri 09:00:31 PM 46.9000 -80.8833 170° South 240 276 19,000  Level Toronto Center
Fri 09:01:31 PM 46.8333 -80.8667 170° South 240 276 19,000  Level Toronto Center
Fri 09:02:31 PM 46.7667 -80.8500 170° South 240 276 19,000  Level Toronto Center
Fri 09:03:31 PM 46.7000 -80.8167 161° South 240 276 19,000  Level Toronto Center
Fri 09:04:31 PM 46.6333 -80.8000 170° South 240 276 19,000  Level Toronto Center
Fri 09:05:31 PM 46.5667 -80.8000 180° South 240 276 19,000  Level Toronto Center
Fri 09:06:31 PM 46.5000 -80.7667 161° South 240 276 19,000  Level Toronto Center
Fri 09:07:31 PM 46.4333 -80.7500 170° South 240 276 19,000  Level Toronto Center
Fri 09:08:31 PM 46.3833 -80.7500 180° South 240 276 19,000  Level Toronto Center
Fri 09:09:31 PM 46.3167 -80.7167 161° South 240 276 19,000  Level Toronto Center
Fri 09:10:31 PM 46.2500 -80.7000 170° South 240 276 19,000  Level Toronto Center
Fri 09:11:31 PM 46.1833 -80.6667 161° South 240 276 19,000  Level Toronto Center
Fri 09:12:31 PM 46.1167 -80.6667 180° South 240 276 19,000  Level Toronto Center
Fri 09:13:31 PM 46.0500 -80.6333 161° South 240 276 19,000  Level Toronto Center
Fri 09:14:31 PM 45.9833 -80.6167 170° South 240 276 19,000  Level Toronto Center
Fri 09:15:31 PM 45.9167 -80.6167 180° South 240 276 19,000  Level Toronto Center
Fri 09:16:31 PM 45.8500 -80.5833 161° South 240 276 19,000  Level Toronto Center
Fri 09:17:31 PM 45.7833 -80.5667 170° South 240 276 19,000  Level Toronto Center
Fri 09:18:31 PM 45.7167 -80.5333 161° South 240 276 19,000  Level Toronto Center
Fri 09:19:31 PM 45.6500 -80.5333 180° South 240 276 19,000  Level Toronto Center
Fri 09:20:31 PM 45.5833 -80.5167 170° South 250 288 19,000  Level Toronto Center
Fri 09:21:31 PM 45.5167 -80.4833 161° South 250 288 19,000  Level Toronto Center
Fri 09:22:31 PM 45.4500 -80.4833 180° South 250 288 19,000  Level Toronto Center
Fri 09:23:31 PM 45.3833 -80.4667 170° South 250 288 19,000  Level Toronto Center
Fri 09:24:31 PM 45.3167 -80.4333 161° South 250 288 19,000  Level Toronto Center
Fri 09:25:31 PM 45.2500 -80.4167 170° South 250 288 19,000  Level Toronto Center
Fri 09:26:31 PM 45.1833 -80.3833 161° South 250 288 19,000  Level Toronto Center
Fri 09:27:31 PM 45.1167 -80.3667 170° South 250 288 19,000  Level Toronto Center
Fri 09:28:31 PM 45.0500 -80.3333 161° South 250 288 19,000  Level Toronto Center
Fri 09:29:31 PM 44.9833 -80.3167 170° South 250 288 19,000  Level Toronto Center
Fri 09:30:31 PM 44.9167 -80.3000 170° South 250 288 19,000  Level Toronto Center
Fri 09:31:31 PM 44.8500 -80.2667 160° South 250 288 19,000 -100 Level Toronto Center
Fri 09:32:31 PM 44.7833 -80.2500 170° South 250 288 18,800 -500 Descending Toronto Center
Fri 09:33:31 PM 44.7000 -80.2167 164° South 270 311 18,000 -900 Descending Toronto Center
Fri 09:34:31 PM 44.6333 -80.2000 170° South 280 322 17,000 -1,150 Descending Toronto Center
Fri 09:35:31 PM 44.5500 -80.1667 164° South 290 334 15,700 -1,300 Descending Toronto Center
Fri 09:36:31 PM 44.4667 -80.1500 172° South 290 334 14,400 -1,300 Descending Toronto Center
Fri 09:37:31 PM 44.4000 -80.1167 160° South 280 322 13,100 -1,250 Descending Toronto Center
Fri 09:38:31 PM 44.3167 -80.1000 172° South 280 322 11,900 -1,200 Descending Toronto Center
Fri 09:39:31 PM 44.2500 -80.0667 160° South 270 311 10,700 -1,150 Descending Toronto Center
Fri 09:40:31 PM 44.1833 -80.0500 170° South 270 311 9,600 -850 Descending Toronto Center
Fri 09:41:31 PM 44.1000 -80.0000 157° South 260 299 9,000 -300 Descending Toronto Center
Fri 09:42:31 PM 44.0500 -80.0000 180° South 240 276 9,000 -33 Level Toronto Center
Fri 09:44:31 PM 43.9333 -79.9167 153° Southeast 230 265 8,900 -300 Descending Toronto Center
Fri 09:45:31 PM 43.8833 -79.8667 144° Southeast 240 276 8,100 -450 Descending Toronto Center
Fri 09:46:31 PM 43.8333 -79.8000 136° Southeast 240 276 8,000 -150 Descending Toronto Center
Fri 09:47:31 PM 43.7833 -79.7500 144° Southeast 230 265 7,800 -800 Descending Toronto Center
Fri 09:48:31 PM 43.7167 -79.7333 170° South 240 276 6,400 -1,300 Descending Toronto Center
Fri 09:49:31 PM 43.6667 -79.8000 224° Southwest 240 276 5,200 -700 Descending Toronto Center
Fri 09:50:31 PM 43.6333 -79.8667 235° Southwest 230 265 5,000 -600 Descending Toronto Center
Fri 09:51:31 PM 43.5833 -79.9333 224° Southwest 240 276 4,000 -500 Descending Toronto Center
Fri 09:52:31 PM 43.5500 -79.8833 133° Southeast 210 242 4,000 -100 Level Toronto Center
Fri 09:53:31 PM 43.5500 -79.8167 90° East 200 230 3,800 -600 Descending Toronto Center
Fri 09:54:31 PM 43.5833 -79.7667 47° Northeast 180 207 2,800 -950 Descending Toronto Center
Fri 09:55:31 PM 43.6167 -79.7000 55° Northeast 170 196 1,900 -700 Descending Toronto Center
Fri 09:56:31 PM 43.6500 -79.6833 20° North 140 161 1,400 -500 Descending Toronto Center

Login

Don't have an account? Register now (free) for customized features, flight alerts, and more!